sensor_id;sensor_type;location;lat;lon;timestamp;temperature;humidity
42907;DHT22;28552;51.146;6.576;2022-08-19T00:01:25;18.10;99.90
42907;DHT22;28552;51.146;6.576;2022-08-19T00:04:30;18.20;99.90
42907;DHT22;28552;51.146;6.576;2022-08-19T00:07:31;18.20;99.90
42907;DHT22;28552;51.146;6.576;2022-08-19T00:10:32;18.10;99.90
42907;DHT22;28552;51.146;6.576;2022-08-19T00:13:34;18.10;99.90
42907;DHT22;28552;51.146;6.576;2022-08-19T00:16:36;18.10;99.90
42907;DHT22;28552;51.146;6.576;2022-08-19T00:19:37;18.10;99.90
42907;DHT22;28552;51.146;6.576;2022-08-19T00:22:38;18.00;99.90
42907;DHT22;28552;51.146;6.576;2022-08-19T00:25:41;17.90;99.90
42907;DHT22;28552;51.146;6.576;2022-08-19T00:28:42;17.90;99.90
42907;DHT22;28552;51.146;6.576;2022-08-19T00:31:43;17.90;99.90
42907;DHT22;28552;51.146;6.576;2022-08-19T00:34:43;17.90;99.90
42907;DHT22;28552;51.146;6.576;2022-08-19T00:37:44;17.90;99.90
42907;DHT22;28552;51.146;6.576;2022-08-19T00:40:45;17.90;99.90
42907;DHT22;28552;51.146;6.576;2022-08-19T00:44:07;17.90;99.90
42907;DHT22;28552;51.146;6.576;2022-08-19T00:47:07;17.90;99.90
42907;DHT22;28552;51.146;6.576;2022-08-19T00:50:09;18.00;99.90
42907;DHT22;28552;51.146;6.576;2022-08-19T00:53:12;18.10;99.90
42907;DHT22;28552;51.146;6.576;2022-08-19T00:56:15;18.10;99.90
42907;DHT22;28552;51.146;6.576;2022-08-19T00:59:17;18.10;99.90
42907;DHT22;28552;51.146;6.576;2022-08-19T01:02:18;18.00;99.90
42907;DHT22;28552;51.146;6.576;2022-08-19T01:05:24;17.80;99.90
42907;DHT22;28552;51.146;6.576;2022-08-19T01:08:28;17.70;99.90
42907;DHT22;28552;51.146;6.576;2022-08-19T01:11:30;17.70;99.90
42907;DHT22;28552;51.146;6.576;2022-08-19T01:14:31;17.80;99.90
42907;DHT22;28552;51.146;6.576;2022-08-19T01:17:34;17.80;99.90
42907;DHT22;28552;51.146;6.576;2022-08-19T01:20:36;17.80;99.90
42907;DHT22;28552;51.146;6.576;2022-08-19T01:23:37;17.70;99.90
42907;DHT22;28552;51.146;6.576;2022-08-19T01:26:46;17.60;99.90
42907;DHT22;28552;51.146;6.576;2022-08-19T01:29:47;17.70;99.90
42907;DHT22;28552;51.146;6.576;2022-08-19T01:32:49;17.60;99.90
42907;DHT22;28552;51.146;6.576;2022-08-19T01:35:50;17.60;99.90
42907;DHT22;28552;51.146;6.576;2022-08-19T01:38:51;17.60;99.90
42907;DHT22;28552;51.146;6.576;2022-08-19T01:41:52;17.60;99.90
42907;DHT22;28552;51.146;6.576;2022-08-19T01:44:54;17.70;99.90
42907;DHT22;28552;51.146;6.576;2022-08-19T01:47:56;17.70;99.90
42907;DHT22;28552;51.146;6.576;2022-08-19T01:50:57;17.80;99.90
42907;DHT22;28552;51.146;6.576;2022-08-19T01:53:58;17.70;99.90
42907;DHT22;28552;51.146;6.576;2022-08-19T01:57:04;17.70;99.90
42907;DHT22;28552;51.146;6.576;2022-08-19T02:00:08;17.70;99.90
42907;DHT22;28552;51.146;6.576;2022-08-19T02:03:10;17.60;99.90
42907;DHT22;28552;51.146;6.576;2022-08-19T02:06:11;17.50;99.90
42907;DHT22;28552;51.146;6.576;2022-08-19T02:09:12;17.30;99.90
42907;DHT22;28552;51.146;6.576;2022-08-19T02:12:13;17.30;99.90
42907;DHT22;28552;51.146;6.576;2022-08-19T02:15:14;17.30;99.90
42907;DHT22;28552;51.146;6.576;2022-08-19T02:18:15;17.30;99.90
42907;DHT22;28552;51.146;6.576;2022-08-19T02:21:17;17.20;99.90
42907;DHT22;28552;51.146;6.576;2022-08-19T02:24:18;17.10;99.90
42907;DHT22;28552;51.146;6.576;2022-08-19T02:27:19;16.90;99.90
42907;DHT22;28552;51.146;6.576;2022-08-19T02:30:20;16.90;99.90
42907;DHT22;28552;51.146;6.576;2022-08-19T02:33:20;16.80;99.90
42907;DHT22;28552;51.146;6.576;2022-08-19T02:36:21;16.70;99.90
42907;DHT22;28552;51.146;6.576;2022-08-19T02:39:22;16.70;99.90
42907;DHT22;28552;51.146;6.576;2022-08-19T02:42:23;16.70;99.90
42907;DHT22;28552;51.146;6.576;2022-08-19T02:45:23;16.70;99.90
42907;DHT22;28552;51.146;6.576;2022-08-19T02:48:25;16.70;99.90
42907;DHT22;28552;51.146;6.576;2022-08-19T02:51:30;16.70;99.90
42907;DHT22;28552;51.146;6.576;2022-08-19T02:54:31;16.80;99.90
42907;DHT22;28552;51.146;6.576;2022-08-19T02:57:32;16.90;99.90
42907;DHT22;28552;51.146;6.576;2022-08-19T03:00:32;17.00;99.90
42907;DHT22;28552;51.146;6.576;2022-08-19T03:03:33;17.00;99.90
42907;DHT22;28552;51.146;6.576;2022-08-19T03:06:37;17.10;99.90
42907;DHT22;28552;51.146;6.576;2022-08-19T03:09:38;17.10;99.90
42907;DHT22;28552;51.146;6.576;2022-08-19T03:12:39;17.10;99.90
42907;DHT22;28552;51.146;6.576;2022-08-19T03:15:42;17.10;99.90
42907;DHT22;28552;51.146;6.576;2022-08-19T03:18:43;17.00;99.90
42907;DHT22;28552;51.146;6.576;2022-08-19T03:21:44;17.00;99.90
42907;DHT22;28552;51.146;6.576;2022-08-19T03:24:45;17.00;99.90
42907;DHT22;28552;51.146;6.576;2022-08-19T03:27:45;17.00;99.90
42907;DHT22;28552;51.146;6.576;2022-08-19T03:31:05;17.00;99.90
42907;DHT22;28552;51.146;6.576;2022-08-19T03:34:07;17.00;99.90
42907;DHT22;28552;51.146;6.576;2022-08-19T03:37:10;17.00;99.90
42907;DHT22;28552;51.146;6.576;2022-08-19T03:40:12;17.00;99.90
42907;DHT22;28552;51.146;6.576;2022-08-19T03:43:13;17.00;99.90
42907;DHT22;28552;51.146;6.576;2022-08-19T03:46:18;17.00;99.90
42907;DHT22;28552;51.146;6.576;2022-08-19T03:49:25;16.90;99.90
42907;DHT22;28552;51.146;6.576;2022-08-19T03:52:27;16.80;99.90
42907;DHT22;28552;51.146;6.576;2022-08-19T03:55:27;16.80;99.90
42907;DHT22;28552;51.146;6.576;2022-08-19T03:58:29;16.80;99.90
42907;DHT22;28552;51.146;6.576;2022-08-19T04:01:30;16.80;99.90
42907;DHT22;28552;51.146;6.576;2022-08-19T04:04:30;16.80;99.90
42907;DHT22;28552;51.146;6.576;2022-08-19T04:07:31;16.80;99.90
42907;DHT22;28552;51.146;6.576;2022-08-19T04:10:39;16.70;99.90
42907;DHT22;28552;51.146;6.576;2022-08-19T04:13:41;16.70;99.90
42907;DHT22;28552;51.146;6.576;2022-08-19T04:16:44;16.70;99.90
42907;DHT22;28552;51.146;6.576;2022-08-19T04:19:44;16.80;99.90
42907;DHT22;28552;51.146;6.576;2022-08-19T04:22:45;16.90;99.90
42907;DHT22;28552;51.146;6.576;2022-08-19T04:25:45;17.00;99.90
42907;DHT22;28552;51.146;6.576;2022-08-19T04:28:46;17.00;99.90
42907;DHT22;28552;51.146;6.576;2022-08-19T04:31:47;16.80;99.90
42907;DHT22;28552;51.146;6.576;2022-08-19T04:34:48;16.80;99.90
42907;DHT22;28552;51.146;6.576;2022-08-19T04:37:48;16.80;99.90
42907;DHT22;28552;51.146;6.576;2022-08-19T04:40:51;16.90;99.90
42907;DHT22;28552;51.146;6.576;2022-08-19T04:44:07;17.00;99.90
42907;DHT22;28552;51.146;6.576;2022-08-19T04:47:07;17.00;99.90
42907;DHT22;28552;51.146;6.576;2022-08-19T04:50:09;17.10;99.90
42907;DHT22;28552;51.146;6.576;2022-08-19T04:53:12;17.10;99.90
42907;DHT22;28552;51.146;6.576;2022-08-19T04:56:14;17.00;99.90
42907;DHT22;28552;51.146;6.576;2022-08-19T04:59:16;17.00;99.90
42907;DHT22;28552;51.146;6.576;2022-08-19T05:02:18;16.90;99.90
42907;DHT22;28552;51.146;6.576;2022-08-19T05:05:19;16.90;99.90
42907;DHT22;28552;51.146;6.576;2022-08-19T05:08:21;16.90;99.90
42907;DHT22;28552;51.146;6.576;2022-08-19T05:11:25;16.90;99.90
42907;DHT22;28552;51.146;6.576;2022-08-19T05:14:26;17.00;99.90
42907;DHT22;28552;51.146;6.576;2022-08-19T05:17:27;17.00;99.90
42907;DHT22;28552;51.146;6.576;2022-08-19T05:20:28;17.10;99.90
42907;DHT22;28552;51.146;6.576;2022-08-19T05:23:43;17.20;99.90
42907;DHT22;28552;51.146;6.576;2022-08-19T05:26:46;17.20;99.90
42907;DHT22;28552;51.146;6.576;2022-08-19T05:29:47;17.30;99.90
42907;DHT22;28552;51.146;6.576;2022-08-19T05:32:48;17.30;99.90
42907;DHT22;28552;51.146;6.576;2022-08-19T05:35:48;17.40;99.90
42907;DHT22;28552;51.146;6.576;2022-08-19T05:38:49;17.40;99.90
42907;DHT22;28552;51.146;6.576;2022-08-19T05:41:55;17.50;99.90
42907;DHT22;28552;51.146;6.576;2022-08-19T05:44:57;17.60;99.90
42907;DHT22;28552;51.146;6.576;2022-08-19T05:47:58;17.60;99.90
42907;DHT22;28552;51.146;6.576;2022-08-19T05:51:05;17.70;99.90
42907;DHT22;28552;51.146;6.576;2022-08-19T05:54:06;17.80;99.90
42907;DHT22;28552;51.146;6.576;2022-08-19T05:57:09;17.80;99.90
42907;DHT22;28552;51.146;6.576;2022-08-19T06:00:10;17.90;99.90
42907;DHT22;28552;51.146;6.576;2022-08-19T06:03:11;18.00;99.90
42907;DHT22;28552;51.146;6.576;2022-08-19T06:06:14;18.10;99.90
42907;DHT22;28552;51.146;6.576;2022-08-19T06:09:15;18.20;99.90
42907;DHT22;28552;51.146;6.576;2022-08-19T06:12:15;18.30;99.90
42907;DHT22;28552;51.146;6.576;2022-08-19T06:15:16;18.50;99.90
42907;DHT22;28552;51.146;6.576;2022-08-19T06:18:16;18.70;99.90
42907;DHT22;28552;51.146;6.576;2022-08-19T06:21:21;18.80;99.90
42907;DHT22;28552;51.146;6.576;2022-08-19T06:24:24;19.00;99.90
42907;DHT22;28552;51.146;6.576;2022-08-19T06:27:25;19.10;99.90
42907;DHT22;28552;51.146;6.576;2022-08-19T06:30:25;19.10;99.90
42907;DHT22;28552;51.146;6.576;2022-08-19T06:33:26;19.10;99.90
42907;DHT22;28552;51.146;6.576;2022-08-19T06:36:29;19.00;99.90
42907;DHT22;28552;51.146;6.576;2022-08-19T06:39:37;18.90;99.90
42907;DHT22;28552;51.146;6.576;2022-08-19T06:42:38;18.90;99.90
42907;DHT22;28552;51.146;6.576;2022-08-19T06:45:39;18.90;99.90
42907;DHT22;28552;51.146;6.576;2022-08-19T06:48:40;18.90;99.90
42907;DHT22;28552;51.146;6.576;2022-08-19T06:51:42;18.90;99.90
42907;DHT22;28552;51.146;6.576;2022-08-19T06:54:43;19.00;99.90
42907;DHT22;28552;51.146;6.576;2022-08-19T06:57:44;19.10;99.90
42907;DHT22;28552;51.146;6.576;2022-08-19T07:00:46;19.20;99.90
42907;DHT22;28552;51.146;6.576;2022-08-19T07:03:47;19.40;99.90
42907;DHT22;28552;51.146;6.576;2022-08-19T07:06:48;19.40;99.90
42907;DHT22;28552;51.146;6.576;2022-08-19T07:09:51;19.50;99.90
42907;DHT22;28552;51.146;6.576;2022-08-19T07:12:53;19.60;99.90
42907;DHT22;28552;51.146;6.576;2022-08-19T07:15:54;19.80;99.90
42907;DHT22;28552;51.146;6.576;2022-08-19T07:18:55;19.90;99.90
42907;DHT22;28552;51.146;6.576;2022-08-19T07:21:57;19.90;99.90
42907;DHT22;28552;51.146;6.576;2022-08-19T07:25:00;19.80;99.90
42907;DHT22;28552;51.146;6.576;2022-08-19T07:28:00;19.80;99.90
42907;DHT22;28552;51.146;6.576;2022-08-19T07:31:01;19.80;99.90
42907;DHT22;28552;51.146;6.576;2022-08-19T07:34:05;19.80;99.90
42907;DHT22;28552;51.146;6.576;2022-08-19T07:37:07;19.80;99.90
42907;DHT22;28552;51.146;6.576;2022-08-19T07:40:08;19.80;99.90
42907;DHT22;28552;51.146;6.576;2022-08-19T07:43:09;19.90;99.90
42907;DHT22;28552;51.146;6.576;2022-08-19T07:46:10;20.00;99.90
42907;DHT22;28552;51.146;6.576;2022-08-19T07:49:13;20.10;99.90
42907;DHT22;28552;51.146;6.576;2022-08-19T07:52:19;20.30;99.90
42907;DHT22;28552;51.146;6.576;2022-08-19T07:55:23;20.40;99.90
42907;DHT22;28552;51.146;6.576;2022-08-19T07:58:24;20.50;99.90
42907;DHT22;28552;51.146;6.576;2022-08-19T08:01:27;20.70;99.90
42907;DHT22;28552;51.146;6.576;2022-08-19T08:04:29;20.90;99.90
42907;DHT22;28552;51.146;6.576;2022-08-19T08:07:45;21.00;99.90
42907;DHT22;28552;51.146;6.576;2022-08-19T08:11:00;21.00;99.90
42907;DHT22;28552;51.146;6.576;2022-08-19T08:14:01;21.00;99.90
42907;DHT22;28552;51.146;6.576;2022-08-19T08:17:03;21.00;99.90
42907;DHT22;28552;51.146;6.576;2022-08-19T08:20:05;21.00;99.90
42907;DHT22;28552;51.146;6.576;2022-08-19T08:23:07;20.90;99.90
42907;DHT22;28552;51.146;6.576;2022-08-19T08:26:23;21.00;99.90
42907;DHT22;28552;51.146;6.576;2022-08-19T08:29:26;21.10;99.90
42907;DHT22;28552;51.146;6.576;2022-08-19T08:32:27;21.20;99.90
42907;DHT22;28552;51.146;6.576;2022-08-19T08:35:28;21.30;99.90
42907;DHT22;28552;51.146;6.576;2022-08-19T08:38:30;21.30;99.90
42907;DHT22;28552;51.146;6.576;2022-08-19T08:41:35;21.40;99.90
42907;DHT22;28552;51.146;6.576;2022-08-19T08:44:53;21.50;99.90
42907;DHT22;28552;51.146;6.576;2022-08-19T08:47:57;21.60;99.90
42907;DHT22;28552;51.146;6.576;2022-08-19T08:51:03;21.70;99.90
42907;DHT22;28552;51.146;6.576;2022-08-19T08:54:07;21.70;99.90
42907;DHT22;28552;51.146;6.576;2022-08-19T08:57:13;21.60;99.90
42907;DHT22;28552;51.146;6.576;2022-08-19T09:03:34;21.60;99.90
42907;DHT22;28552;51.146;6.576;2022-08-19T09:06:38;21.50;99.90
42907;DHT22;28552;51.146;6.576;2022-08-19T09:09:43;21.60;99.90
42907;DHT22;28552;51.146;6.576;2022-08-19T09:16:06;21.80;99.90
42907;DHT22;28552;51.146;6.576;2022-08-19T09:19:08;21.90;99.90
42907;DHT22;28552;51.146;6.576;2022-08-19T09:22:09;22.00;99.90
42907;DHT22;28552;51.146;6.576;2022-08-19T09:25:12;22.10;99.90
42907;DHT22;28552;51.146;6.576;2022-08-19T09:28:13;22.30;99.90
42907;DHT22;28552;51.146;6.576;2022-08-19T09:31:16;22.40;99.90
42907;DHT22;28552;51.146;6.576;2022-08-19T09:34:18;22.50;99.90
42907;DHT22;28552;51.146;6.576;2022-08-19T09:37:21;22.70;99.90
42907;DHT22;28552;51.146;6.576;2022-08-19T09:40:22;22.70;99.90
42907;DHT22;28552;51.146;6.576;2022-08-19T09:43:23;22.70;99.90
42907;DHT22;28552;51.146;6.576;2022-08-19T09:46:28;22.70;99.90
42907;DHT22;28552;51.146;6.576;2022-08-19T09:49:30;22.50;99.90
42907;DHT22;28552;51.146;6.576;2022-08-19T09:52:31;22.50;99.90
42907;DHT22;28552;51.146;6.576;2022-08-19T09:55:32;22.60;99.90
42907;DHT22;28552;51.146;6.576;2022-08-19T09:58:34;22.70;99.90
42907;DHT22;28552;51.146;6.576;2022-08-19T10:01:34;22.70;99.90
42907;DHT22;28552;51.146;6.576;2022-08-19T10:04:35;22.80;99.90
42907;DHT22;28552;51.146;6.576;2022-08-19T10:07:50;22.90;99.90
42907;DHT22;28552;51.146;6.576;2022-08-19T10:10:52;22.80;99.90
42907;DHT22;28552;51.146;6.576;2022-08-19T10:13:53;22.90;99.90
42907;DHT22;28552;51.146;6.576;2022-08-19T10:16:54;22.90;99.90
42907;DHT22;28552;51.146;6.576;2022-08-19T10:19:54;22.90;99.90
42907;DHT22;28552;51.146;6.576;2022-08-19T10:22:55;23.00;99.90
42907;DHT22;28552;51.146;6.576;2022-08-19T10:26:00;23.00;99.90
42907;DHT22;28552;51.146;6.576;2022-08-19T10:29:00;23.00;99.90
42907;DHT22;28552;51.146;6.576;2022-08-19T10:32:03;23.00;99.90
42907;DHT22;28552;51.146;6.576;2022-08-19T10:35:05;23.00;99.90
42907;DHT22;28552;51.146;6.576;2022-08-19T10:38:08;23.00;99.90
42907;DHT22;28552;51.146;6.576;2022-08-19T10:41:11;23.20;99.90
42907;DHT22;28552;51.146;6.576;2022-08-19T10:44:13;23.40;99.90
42907;DHT22;28552;51.146;6.576;2022-08-19T10:47:14;23.60;99.90
42907;DHT22;28552;51.146;6.576;2022-08-19T10:50:15;23.80;99.90
42907;DHT22;28552;51.146;6.576;2022-08-19T10:53:30;23.80;99.90
42907;DHT22;28552;51.146;6.576;2022-08-19T10:56:32;24.10;99.90
42907;DHT22;28552;51.146;6.576;2022-08-19T10:59:48;24.20;99.90
42907;DHT22;28552;51.146;6.576;2022-08-19T11:02:49;24.20;99.90
42907;DHT22;28552;51.146;6.576;2022-08-19T11:05:59;24.10;99.90
42907;DHT22;28552;51.146;6.576;2022-08-19T11:08:59;23.90;99.90
42907;DHT22;28552;51.146;6.576;2022-08-19T11:12:00;23.80;99.90
42907;DHT22;28552;51.146;6.576;2022-08-19T11:15:01;23.70;99.90
42907;DHT22;28552;51.146;6.576;2022-08-19T11:18:01;23.60;99.90
42907;DHT22;28552;51.146;6.576;2022-08-19T11:21:07;23.60;99.90
42907;DHT22;28552;51.146;6.576;2022-08-19T11:24:11;23.80;99.90
42907;DHT22;28552;51.146;6.576;2022-08-19T11:27:12;24.00;99.90
42907;DHT22;28552;51.146;6.576;2022-08-19T11:30:13;24.00;99.90
42907;DHT22;28552;51.146;6.576;2022-08-19T11:33:15;24.10;99.90
42907;DHT22;28552;51.146;6.576;2022-08-19T11:36:16;24.10;99.30
42907;DHT22;28552;51.146;6.576;2022-08-19T11:39:19;23.90;99.90
42907;DHT22;28552;51.146;6.576;2022-08-19T11:42:21;24.00;99.90
42907;DHT22;28552;51.146;6.576;2022-08-19T11:45:36;24.00;99.90
42907;DHT22;28552;51.146;6.576;2022-08-19T11:48:37;24.00;99.90
42907;DHT22;28552;51.146;6.576;2022-08-19T11:51:38;24.10;99.90
42907;DHT22;28552;51.146;6.576;2022-08-19T11:54:39;24.00;99.90
42907;DHT22;28552;51.146;6.576;2022-08-19T11:57:40;24.10;99.90
42907;DHT22;28552;51.146;6.576;2022-08-19T12:00:43;24.30;98.50
42907;DHT22;28552;51.146;6.576;2022-08-19T12:03:47;24.50;97.70
42907;DHT22;28552;51.146;6.576;2022-08-19T12:06:47;24.80;97.90
42907;DHT22;28552;51.146;6.576;2022-08-19T12:09:50;25.00;97.00
42907;DHT22;28552;51.146;6.576;2022-08-19T12:12:50;25.10;97.00
42907;DHT22;28552;51.146;6.576;2022-08-19T12:15:51;25.30;95.60
42907;DHT22;28552;51.146;6.576;2022-08-19T12:18:54;25.40;94.60
42907;DHT22;28552;51.146;6.576;2022-08-19T12:21:58;25.40;94.50
42907;DHT22;28552;51.146;6.576;2022-08-19T12:25:00;25.40;94.10
42907;DHT22;28552;51.146;6.576;2022-08-19T12:28:01;25.40;94.30
42907;DHT22;28552;51.146;6.576;2022-08-19T12:31:02;25.60;93.70
42907;DHT22;28552;51.146;6.576;2022-08-19T12:34:03;25.70;91.40
42907;DHT22;28552;51.146;6.576;2022-08-19T12:37:05;25.80;87.20
42907;DHT22;28552;51.146;6.576;2022-08-19T12:40:06;25.80;89.10
42907;DHT22;28552;51.146;6.576;2022-08-19T12:43:08;25.90;89.80
42907;DHT22;28552;51.146;6.576;2022-08-19T12:46:08;26.00;91.00
42907;DHT22;28552;51.146;6.576;2022-08-19T12:49:09;26.10;91.20
42907;DHT22;28552;51.146;6.576;2022-08-19T12:52:10;26.20;91.10
42907;DHT22;28552;51.146;6.576;2022-08-19T12:55:11;26.20;90.70
42907;DHT22;28552;51.146;6.576;2022-08-19T12:58:12;26.30;90.20
42907;DHT22;28552;51.146;6.576;2022-08-19T13:01:14;26.30;87.20
42907;DHT22;28552;51.146;6.576;2022-08-19T13:04:15;26.30;87.30
42907;DHT22;28552;51.146;6.576;2022-08-19T13:07:16;26.30;86.20
42907;DHT22;28552;51.146;6.576;2022-08-19T13:10:19;26.20;85.20
42907;DHT22;28552;51.146;6.576;2022-08-19T13:13:20;26.30;85.60
42907;DHT22;28552;51.146;6.576;2022-08-19T13:16:21;26.20;83.50
42907;DHT22;28552;51.146;6.576;2022-08-19T13:19:22;26.10;84.90
42907;DHT22;28552;51.146;6.576;2022-08-19T13:22:23;26.00;85.50
42907;DHT22;28552;51.146;6.576;2022-08-19T13:25:25;26.10;85.00
42907;DHT22;28552;51.146;6.576;2022-08-19T13:28:26;26.30;82.30
42907;DHT22;28552;51.146;6.576;2022-08-19T13:31:28;26.40;81.50
42907;DHT22;28552;51.146;6.576;2022-08-19T13:34:44;26.50;77.10
42907;DHT22;28552;51.146;6.576;2022-08-19T13:37:46;26.50;78.00
42907;DHT22;28552;51.146;6.576;2022-08-19T13:40:49;26.50;75.50
42907;DHT22;28552;51.146;6.576;2022-08-19T13:43:50;26.60;76.20
42907;DHT22;28552;51.146;6.576;2022-08-19T13:46:51;26.60;76.30
42907;DHT22;28552;51.146;6.576;2022-08-19T13:49:53;26.60;76.70
42907;DHT22;28552;51.146;6.576;2022-08-19T13:52:55;26.60;76.50
42907;DHT22;28552;51.146;6.576;2022-08-19T13:55:56;26.70;75.90
42907;DHT22;28552;51.146;6.576;2022-08-19T13:58:56;26.90;72.90
42907;DHT22;28552;51.146;6.576;2022-08-19T14:01:58;26.80;70.00
42907;DHT22;28552;51.146;6.576;2022-08-19T14:04:59;26.90;70.70
42907;DHT22;28552;51.146;6.576;2022-08-19T14:08:00;26.90;66.60
42907;DHT22;28552;51.146;6.576;2022-08-19T14:11:01;27.00;65.30
42907;DHT22;28552;51.146;6.576;2022-08-19T14:14:01;27.00;65.30
42907;DHT22;28552;51.146;6.576;2022-08-19T14:17:06;27.00;65.40
42907;DHT22;28552;51.146;6.576;2022-08-19T14:20:08;27.00;66.50
42907;DHT22;28552;51.146;6.576;2022-08-19T14:23:10;27.10;66.20
42907;DHT22;28552;51.146;6.576;2022-08-19T14:26:15;27.00;65.30
42907;DHT22;28552;51.146;6.576;2022-08-19T14:29:16;26.70;65.00
42907;DHT22;28552;51.146;6.576;2022-08-19T14:32:16;26.70;66.90
42907;DHT22;28552;51.146;6.576;2022-08-19T14:35:17;26.70;70.00
42907;DHT22;28552;51.146;6.576;2022-08-19T14:38:18;26.60;69.70
42907;DHT22;28552;51.146;6.576;2022-08-19T14:41:21;26.50;71.50
42907;DHT22;28552;51.146;6.576;2022-08-19T14:44:22;26.70;72.00
42907;DHT22;28552;51.146;6.576;2022-08-19T14:47:23;26.80;71.60
42907;DHT22;28552;51.146;6.576;2022-08-19T14:50:23;26.80;70.90
42907;DHT22;28552;51.146;6.576;2022-08-19T14:53:24;26.70;70.70
42907;DHT22;28552;51.146;6.576;2022-08-19T14:56:27;26.60;71.10
42907;DHT22;28552;51.146;6.576;2022-08-19T14:59:28;26.60;72.70
42907;DHT22;28552;51.146;6.576;2022-08-19T15:02:28;26.60;72.70
42907;DHT22;28552;51.146;6.576;2022-08-19T15:05:29;26.50;74.50
42907;DHT22;28552;51.146;6.576;2022-08-19T15:08:31;26.30;76.00
42907;DHT22;28552;51.146;6.576;2022-08-19T15:11:32;26.10;78.10
42907;DHT22;28552;51.146;6.576;2022-08-19T15:14:36;26.00;80.20
42907;DHT22;28552;51.146;6.576;2022-08-19T15:17:38;26.10;81.60
42907;DHT22;28552;51.146;6.576;2022-08-19T15:20:39;26.20;81.50
42907;DHT22;28552;51.146;6.576;2022-08-19T15:23:41;26.20;82.10
42907;DHT22;28552;51.146;6.576;2022-08-19T15:26:41;26.10;81.90
42907;DHT22;28552;51.146;6.576;2022-08-19T15:29:42;25.80;82.00
42907;DHT22;28552;51.146;6.576;2022-08-19T15:32:46;25.70;83.10
42907;DHT22;28552;51.146;6.576;2022-08-19T15:35:47;25.60;83.70
42907;DHT22;28552;51.146;6.576;2022-08-19T15:38:50;25.70;84.30
42907;DHT22;28552;51.146;6.576;2022-08-19T15:41:52;25.70;84.20
42907;DHT22;28552;51.146;6.576;2022-08-19T15:44:52;25.60;84.50
42907;DHT22;28552;51.146;6.576;2022-08-19T15:47:53;25.60;85.10
42907;DHT22;28552;51.146;6.576;2022-08-19T15:50:53;25.40;86.00
42907;DHT22;28552;51.146;6.576;2022-08-19T15:53:54;25.30;86.80
42907;DHT22;28552;51.146;6.576;2022-08-19T15:56:55;25.20;87.90
42907;DHT22;28552;51.146;6.576;2022-08-19T16:00:10;25.10;88.90
42907;DHT22;28552;51.146;6.576;2022-08-19T16:03:26;25.00;90.10
42907;DHT22;28552;51.146;6.576;2022-08-19T16:09:44;24.90;90.80
42907;DHT22;28552;51.146;6.576;2022-08-19T16:12:45;24.80;91.10
42907;DHT22;28552;51.146;6.576;2022-08-19T16:15:45;24.80;91.50
42907;DHT22;28552;51.146;6.576;2022-08-19T16:18:46;24.80;91.70
42907;DHT22;28552;51.146;6.576;2022-08-19T16:21:49;24.80;92.00
42907;DHT22;28552;51.146;6.576;2022-08-19T16:24:51;24.70;92.50
42907;DHT22;28552;51.146;6.576;2022-08-19T16:27:52;24.70;92.70
42907;DHT22;28552;51.146;6.576;2022-08-19T16:30:53;24.70;92.90
42907;DHT22;28552;51.146;6.576;2022-08-19T16:33:54;24.70;93.30
42907;DHT22;28552;51.146;6.576;2022-08-19T16:36:55;24.60;93.70
42907;DHT22;28552;51.146;6.576;2022-08-19T16:39:56;24.60;93.90
42907;DHT22;28552;51.146;6.576;2022-08-19T16:42:56;24.50;94.10
42907;DHT22;28552;51.146;6.576;2022-08-19T16:45:57;24.50;94.60
42907;DHT22;28552;51.146;6.576;2022-08-19T16:48:58;24.40;94.40
42907;DHT22;28552;51.146;6.576;2022-08-19T16:51:58;24.40;94.60
42907;DHT22;28552;51.146;6.576;2022-08-19T16:54:59;24.40;94.80
42907;DHT22;28552;51.146;6.576;2022-08-19T16:58:00;24.40;94.90
42907;DHT22;28552;51.146;6.576;2022-08-19T17:01:06;24.40;94.90
42907;DHT22;28552;51.146;6.576;2022-08-19T17:04:07;24.50;95.00
42907;DHT22;28552;51.146;6.576;2022-08-19T17:07:09;24.50;95.00
42907;DHT22;28552;51.146;6.576;2022-08-19T17:10:09;24.50;95.10
42907;DHT22;28552;51.146;6.576;2022-08-19T17:13:11;24.40;95.20
42907;DHT22;28552;51.146;6.576;2022-08-19T17:16:16;24.40;95.30
42907;DHT22;28552;51.146;6.576;2022-08-19T17:19:16;24.40;95.40
42907;DHT22;28552;51.146;6.576;2022-08-19T17:22:17;24.40;95.60
42907;DHT22;28552;51.146;6.576;2022-08-19T17:25:18;24.70;95.40
42907;DHT22;28552;51.146;6.576;2022-08-19T17:28:24;25.10;94.70
42907;DHT22;28552;51.146;6.576;2022-08-19T17:31:28;25.30;94.20
42907;DHT22;28552;51.146;6.576;2022-08-19T17:34:29;25.30;94.10
42907;DHT22;28552;51.146;6.576;2022-08-19T17:37:30;25.10;94.30
42907;DHT22;28552;51.146;6.576;2022-08-19T17:40:31;25.00;94.60
42907;DHT22;28552;51.146;6.576;2022-08-19T17:43:33;24.80;94.80
42907;DHT22;28552;51.146;6.576;2022-08-19T17:46:35;24.70;95.00
42907;DHT22;28552;51.146;6.576;2022-08-19T17:49:35;24.50;95.10
42907;DHT22;28552;51.146;6.576;2022-08-19T17:52:36;24.40;95.30
42907;DHT22;28552;51.146;6.576;2022-08-19T17:55:37;24.30;95.60
42907;DHT22;28552;51.146;6.576;2022-08-19T17:58:39;24.20;95.80
42907;DHT22;28552;51.146;6.576;2022-08-19T18:01:42;24.10;96.20
42907;DHT22;28552;51.146;6.576;2022-08-19T18:04:43;24.00;96.40
42907;DHT22;28552;51.146;6.576;2022-08-19T18:07:44;23.90;96.70
42907;DHT22;28552;51.146;6.576;2022-08-19T18:10:44;23.80;96.90
42907;DHT22;28552;51.146;6.576;2022-08-19T18:13:45;23.80;97.00
42907;DHT22;28552;51.146;6.576;2022-08-19T18:16:46;23.70;97.20
42907;DHT22;28552;51.146;6.576;2022-08-19T18:19:46;23.70;97.50
42907;DHT22;28552;51.146;6.576;2022-08-19T18:22:48;23.70;97.70
42907;DHT22;28552;51.146;6.576;2022-08-19T18:25:49;23.60;98.10
42907;DHT22;28552;51.146;6.576;2022-08-19T18:28:49;23.50;98.40
42907;DHT22;28552;51.146;6.576;2022-08-19T18:31:51;23.50;98.90
42907;DHT22;28552;51.146;6.576;2022-08-19T18:34:55;23.40;99.20
42907;DHT22;28552;51.146;6.576;2022-08-19T18:37:59;23.40;99.60
42907;DHT22;28552;51.146;6.576;2022-08-19T18:41:01;23.30;99.90
42907;DHT22;28552;51.146;6.576;2022-08-19T18:44:16;23.20;99.90
42907;DHT22;28552;51.146;6.576;2022-08-19T18:47:32;23.20;99.90
42907;DHT22;28552;51.146;6.576;2022-08-19T18:50:52;23.20;99.90
42907;DHT22;28552;51.146;6.576;2022-08-19T18:53:53;23.10;99.90
42907;DHT22;28552;51.146;6.576;2022-08-19T18:56:56;23.10;99.90
42907;DHT22;28552;51.146;6.576;2022-08-19T18:59:57;23.10;99.90
42907;DHT22;28552;51.146;6.576;2022-08-19T19:02:57;23.10;99.90
42907;DHT22;28552;51.146;6.576;2022-08-19T19:05:58;23.00;99.90
42907;DHT22;28552;51.146;6.576;2022-08-19T19:08:59;23.00;99.90
42907;DHT22;28552;51.146;6.576;2022-08-19T19:12:03;22.90;99.90
42907;DHT22;28552;51.146;6.576;2022-08-19T19:15:04;22.80;99.90
42907;DHT22;28552;51.146;6.576;2022-08-19T19:18:05;22.70;99.90
42907;DHT22;28552;51.146;6.576;2022-08-19T19:21:06;22.60;99.90